Index of /observatory/weather/Observatory_weather

[ICO]NameLast modifiedSizeDescription

[DIR]Parent Directory  -  
[IMG]test.png24-Nov-2017 13:58 77K 
[DIR]reports/14-Feb-2018 13:55 -  
[TXT]radiation2012.txt21-Sep-2018 14:30 221K 
[TXT]radiation.txt24-Aug-2013 15:40 1.6M 
[IMG]quicklook_data_96h.png21-Sep-2018 14:32 173K 
[IMG]quicklook_data_48h.png21-Sep-2018 14:32 174K 
[IMG]quicklook_data_12h.png21-Sep-2018 14:32 158K 
[IMG]quicklook_data_2h.png21-Sep-2018 14:32 153K 
[IMG]quicklook_data_1h.png14-Dec-2017 17:08 39K 
[IMG]quicklook_data_0.1h.png14-Dec-2017 17:15 38K 
[   ]obs_rollover.xcf29-Aug-2018 13:34 4.5M 
[IMG]obs_rollover.jpg29-Aug-2018 13:30 343K 
[VID]movie.avi13-Jul-2018 00:01 6.2M 
[TXT]data.htm21-Sep-2018 14:30 351  
[DIR]archive/21-Feb-2018 15:20 -  
[IMG]YearlyRain.gif21-Sep-2018 14:30 5.1K 
[IMG]WindSpeedHistory.gif21-Sep-2018 14:30 11K 
[IMG]WindSpeed.gif21-Sep-2018 14:30 4.4K 
[IMG]WindDirectionHistory.gif21-Sep-2018 14:30 10K 
[IMG]WindDirection.gif21-Sep-2018 14:30 4.5K 
[IMG]WindChillHistory.gif21-Sep-2018 14:30 11K 
[IMG]WindChill.gif21-Sep-2018 14:30 4.5K 
[TXT]Tag-List.htm21-Sep-2018 14:30 8.4K 
[IMG]THW.gif21-Sep-2018 14:30 4.4K 
[IMG]SchPhyAst_colour.jpg12-Sep-2013 17:33 24K 
[IMG]ReceptionHistory.gif21-Sep-2018 14:30 13K 
[IMG]RainStorm.gif21-Sep-2018 14:30 4.6K 
[IMG]RainRateHistory.gif21-Sep-2018 14:30 9.4K 
[IMG]RainRate.gif21-Sep-2018 14:30 5.8K 
[IMG]RainHistory.gif21-Sep-2018 14:30 9.2K 
[IMG]Rain.gif21-Sep-2018 14:30 4.1K 
[IMG]OutsideTempHistory.gif21-Sep-2018 14:30 11K 
[IMG]OutsideTemp.gif21-Sep-2018 14:30 5.4K 
[IMG]OutsideHumidityHistory.gif21-Sep-2018 14:30 10K 
[IMG]OutsideHumidity.gif21-Sep-2018 14:30 5.5K 
[TXT]Observatory_weather.htm21-Sep-2018 14:30 18K 
[TXT]Monthly_Vantage_Pro.htm21-Sep-2018 14:30 11K 
[IMG]MonthlyRain.gif21-Sep-2018 14:30 4.4K 
[IMG]InsideTempHistory.gif21-Sep-2018 14:30 9.7K 
[IMG]InsideTemp.gif21-Sep-2018 14:30 5.4K 
[IMG]InsideHumidityHistory.gif21-Sep-2018 14:30 10K 
[IMG]InsideHumidity.gif21-Sep-2018 14:30 5.5K 
[IMG]InsideHeatIndexHistory.gif21-Sep-2018 14:30 9.7K 
[IMG]InsideHeatIndex.gif21-Sep-2018 14:30 4.4K 
[IMG]InsideDewPointHistory.gif21-Sep-2018 14:30 9.9K 
[IMG]InsideDewPoint.gif21-Sep-2018 14:30 4.4K 
[IMG]HiWindSpeedHistory.gif21-Sep-2018 14:30 12K 
[IMG]HeatIndexHistory.gif21-Sep-2018 14:30 11K 
[IMG]HeatIndex.gif21-Sep-2018 14:30 5.3K 
[IMG]EMC.gif21-Sep-2018 14:30 4.2K 
[IMG]DewPointHistory.gif21-Sep-2018 14:30 10K 
[IMG]DewPoint.gif21-Sep-2018 14:30 5.2K 
[IMG]DCAMImage.jpg24-Jul-2018 13:16 249K 
[TXT]Current_Vantage_Pro.htm21-Sep-2018 14:30 13K 
[TXT]Current_Conditions.htm21-Sep-2018 14:30 2.7K 
[IMG]BarometerHistory.gif21-Sep-2018 14:30 9.4K 
[IMG]Barometer.gif21-Sep-2018 14:30 5.6K 
[IMG]AirDensity.gif21-Sep-2018 14:30 4.9K 
[TXT]201707.txt21-Feb-2018 15:01 183K 
[TXT]201706.txt21-Feb-2018 15:10 351K 
[TXT]201705.txt21-Feb-2018 15:10 1.1M 
[TXT]2015.txt13-Mar-2018 12:42 11M 
[IMG]10MinAvgWindSpeed.gif21-Sep-2018 14:30 4.3K 

Apache/2.2.14 (Ubuntu) Server at www.astro.gla.ac.uk Port 80